createdAt,value
2023-05-17T00:01:05.466Z,99.90
2023-05-17T00:03:34.577Z,99.90
2023-05-17T00:06:02.450Z,99.90
2023-05-17T00:08:30.202Z,99.90
2023-05-17T00:10:57.979Z,99.90
2023-05-17T00:13:25.791Z,99.90
2023-05-17T00:15:53.502Z,99.90
2023-05-17T00:18:21.318Z,99.90
2023-05-17T00:20:50.448Z,99.90
2023-05-17T00:23:18.164Z,99.90
2023-05-17T00:25:46.684Z,99.90
2023-05-17T00:28:14.437Z,99.90
2023-05-17T00:30:42.226Z,99.90
2023-05-17T00:33:10.079Z,99.90
2023-05-17T00:35:37.865Z,99.90
2023-05-17T00:38:07.385Z,99.90
2023-05-17T00:40:35.158Z,99.90
2023-05-17T00:43:03.137Z,99.90
2023-05-17T00:45:31.014Z,99.90
2023-05-17T00:47:59.015Z,99.90
2023-05-17T00:50:26.963Z,99.90
2023-05-17T00:52:55.121Z,99.90
2023-05-17T00:55:24.217Z,99.90
2023-05-17T00:57:51.950Z,99.90
2023-05-17T01:00:20.026Z,99.90
2023-05-17T01:02:48.738Z,99.90
2023-05-17T01:05:16.868Z,99.90
2023-05-17T01:07:44.657Z,99.90
2023-05-17T01:10:12.758Z,99.90
2023-05-17T01:12:56.266Z,99.90
2023-05-17T01:15:27.028Z,99.90
2023-05-17T01:18:01.909Z,99.90
2023-05-17T01:20:32.686Z,99.90
2023-05-17T01:23:17.348Z,99.90
2023-05-17T01:25:55.943Z,99.90
2023-05-17T01:28:27.409Z,99.90
2023-05-17T01:30:57.323Z,99.90
2023-05-17T01:33:25.975Z,99.90
2023-05-17T01:35:53.870Z,99.90
2023-05-17T01:38:21.745Z,99.90
2023-05-17T01:40:53.254Z,99.90
2023-05-17T01:43:27.484Z,99.90
2023-05-17T01:46:02.893Z,99.90
2023-05-17T01:48:37.506Z,99.90
2023-05-17T01:51:05.871Z,99.90
2023-05-17T01:53:39.190Z,99.90
2023-05-17T01:56:10.657Z,99.90
2023-05-17T01:58:46.196Z,99.90
2023-05-17T02:01:17.088Z,99.90
2023-05-17T02:03:45.037Z,99.90
2023-05-17T02:06:12.779Z,99.90
2023-05-17T02:08:40.565Z,99.90
2023-05-17T02:11:08.454Z,99.90
2023-05-17T02:13:36.299Z,99.90
2023-05-17T02:16:06.640Z,99.90
2023-05-17T02:18:35.704Z,99.90
2023-05-17T02:21:03.771Z,99.90
2023-05-17T02:23:31.557Z,99.90
2023-05-17T02:25:59.369Z,99.90
2023-05-17T02:28:28.532Z,99.90
2023-05-17T02:30:56.567Z,99.90
2023-05-17T02:33:25.782Z,99.90
2023-05-17T02:35:53.618Z,99.90
2023-05-17T02:38:21.748Z,99.90
2023-05-17T02:40:49.513Z,99.90
2023-05-17T02:43:17.282Z,99.90
2023-05-17T02:45:45.485Z,99.90
2023-05-17T02:48:13.264Z,99.90
2023-05-17T02:50:45.172Z,99.90
2023-05-17T02:53:12.977Z,99.90
2023-05-17T02:55:40.728Z,99.90
2023-05-17T02:58:08.466Z,99.90
2023-05-17T03:00:36.192Z,99.90
2023-05-17T03:03:04.120Z,99.90
2023-05-17T03:05:31.995Z,99.90
2023-05-17T03:08:01.464Z,99.90
2023-05-17T03:10:29.243Z,99.90
2023-05-17T03:12:57.019Z,99.90
2023-05-17T03:15:26.805Z,99.90
2023-05-17T03:17:54.856Z,99.90
2023-05-17T03:20:22.768Z,99.90
2023-05-17T03:22:50.623Z,99.90
2023-05-17T03:25:19.972Z,99.90
2023-05-17T03:27:47.822Z,99.90
2023-05-17T03:30:15.873Z,99.90
2023-05-17T03:32:43.748Z,99.90
2023-05-17T03:35:11.670Z,99.90
2023-05-17T03:37:39.418Z,99.90
2023-05-17T03:40:08.272Z,99.90
2023-05-17T03:42:43.702Z,99.90
2023-05-17T03:45:13.002Z,99.90
2023-05-17T03:47:44.186Z,99.90
2023-05-17T03:50:12.340Z,99.90
2023-05-17T03:52:41.984Z,99.90
2023-05-17T03:55:10.616Z,99.90
2023-05-17T03:57:39.773Z,99.90
2023-05-17T04:00:10.525Z,99.90
2023-05-17T04:02:38.507Z,99.90
2023-05-17T04:05:06.907Z,99.90
2023-05-17T04:07:34.727Z,99.90
2023-05-17T04:10:02.965Z,99.90
2023-05-17T04:12:30.767Z,99.90
2023-05-17T04:15:00.093Z,99.90
2023-05-17T04:17:27.881Z,99.90
2023-05-17T04:19:55.818Z,99.90
2023-05-17T04:22:23.803Z,99.90
2023-05-17T04:24:51.552Z,99.90
2023-05-17T04:27:19.323Z,99.90
2023-05-17T04:29:47.074Z,99.90
2023-05-17T04:32:16.633Z,99.90
2023-05-17T04:34:44.419Z,99.90
2023-05-17T04:37:12.226Z,99.90
2023-05-17T04:39:40.096Z,99.90
2023-05-17T04:42:09.128Z,99.90
2023-05-17T04:44:36.962Z,99.90
2023-05-17T04:47:04.950Z,99.90
2023-05-17T04:49:34.627Z,99.90
2023-05-17T04:52:04.614Z,99.90
2023-05-17T04:54:33.909Z,99.90
2023-05-17T04:57:01.974Z,99.90
2023-05-17T04:59:29.766Z,99.90
2023-05-17T05:01:57.533Z,99.90
2023-05-17T05:04:28.073Z,99.90
2023-05-17T05:06:57.134Z,99.90
2023-05-17T05:09:25.023Z,99.90
2023-05-17T05:11:52.800Z,99.90
2023-05-17T05:14:20.710Z,99.90
2023-05-17T05:16:48.469Z,99.90
2023-05-17T05:19:16.816Z,99.90
2023-05-17T05:21:45.870Z,99.90
2023-05-17T05:24:14.981Z,99.90
2023-05-17T05:26:42.864Z,99.90
2023-05-17T05:29:10.725Z,99.90
2023-05-17T05:31:38.546Z,99.90
2023-05-17T05:34:06.783Z,99.90
2023-05-17T05:36:34.784Z,99.90
2023-05-17T05:39:02.985Z,99.90
2023-05-17T05:41:32.928Z,99.90
2023-05-17T05:44:00.712Z,99.90
2023-05-17T05:46:28.627Z,99.90
2023-05-17T05:48:56.501Z,99.90
2023-05-17T05:51:24.333Z,99.90
2023-05-17T05:53:52.077Z,99.90
2023-05-17T05:56:19.893Z,99.90
2023-05-17T05:58:49.011Z,99.90
2023-05-17T06:01:16.821Z,99.90
2023-05-17T06:03:44.564Z,99.90
2023-05-17T06:06:12.486Z,99.90
2023-05-17T06:08:40.323Z,99.90
2023-05-17T06:11:08.203Z,99.90
2023-05-17T06:13:35.957Z,99.90
2023-05-17T06:16:05.966Z,99.90
2023-05-17T06:18:34.080Z,99.90
2023-05-17T06:21:01.903Z,99.90
2023-05-17T06:23:29.716Z,99.90
2023-05-17T06:25:57.537Z,99.90
2023-05-17T06:28:26.319Z,99.90
2023-05-17T06:30:54.058Z,99.90
2023-05-17T06:33:23.227Z,99.90
2023-05-17T06:35:56.882Z,99.90
2023-05-17T06:38:25.858Z,99.90
2023-05-17T06:40:54.959Z,99.90
2023-05-17T06:43:23.005Z,99.90
2023-05-17T06:45:51.224Z,99.90
2023-05-17T06:48:19.198Z,99.90
2023-05-17T06:50:48.580Z,99.90
2023-05-17T06:53:16.427Z,99.90
2023-05-17T06:55:44.315Z,99.90
2023-05-17T06:58:12.240Z,99.90
2023-05-17T07:00:40.083Z,99.90
2023-05-17T07:03:08.153Z,99.90
2023-05-17T07:05:36.606Z,99.90
2023-05-17T07:08:06.941Z,99.90
2023-05-17T07:10:34.860Z,99.90
2023-05-17T07:13:02.860Z,99.90
2023-05-17T07:15:30.843Z,99.90
2023-05-17T07:17:59.600Z,99.90
2023-05-17T07:20:27.667Z,99.90
2023-05-17T07:22:56.266Z,99.90
2023-05-17T07:25:25.403Z,99.90
2023-05-17T07:27:53.407Z,99.90
2023-05-17T07:30:21.307Z,99.90
2023-05-17T07:32:49.114Z,99.90
2023-05-17T07:35:21.659Z,99.90
2023-05-17T07:37:49.816Z,99.90
2023-05-17T07:40:17.952Z,99.90
2023-05-17T07:42:47.046Z,99.90
2023-05-17T07:45:14.995Z,99.90
2023-05-17T07:47:42.947Z,99.90
2023-05-17T07:50:12.007Z,99.90
2023-05-17T07:52:39.826Z,99.90
2023-05-17T07:55:08.865Z,99.90
2023-05-17T07:57:37.000Z,99.90
2023-05-17T08:00:12.839Z,99.90
2023-05-17T08:02:41.141Z,99.90
2023-05-17T08:05:09.963Z,99.90
2023-05-17T08:07:37.866Z,99.90
2023-05-17T08:10:06.327Z,99.90
2023-05-17T08:12:34.205Z,99.90
2023-05-17T08:15:02.029Z,99.90
2023-05-17T08:17:31.474Z,99.90
2023-05-17T08:19:59.381Z,99.90
2023-05-17T08:22:27.447Z,99.90
2023-05-17T08:24:55.170Z,99.90
2023-05-17T08:27:22.901Z,99.90
2023-05-17T08:29:51.867Z,99.60
2023-05-17T08:32:19.599Z,96.40
2023-05-17T08:34:48.863Z,94.90
2023-05-17T08:37:19.531Z,85.50
2023-05-17T08:39:48.130Z,80.90
2023-05-17T08:42:19.493Z,74.00
2023-05-17T08:44:47.387Z,68.10
2023-05-17T08:47:25.631Z,66.40
2023-05-17T08:50:00.920Z,70.50
2023-05-17T08:52:32.144Z,67.80
2023-05-17T08:55:01.000Z,68.30
2023-05-17T08:57:31.270Z,63.20
2023-05-17T09:00:00.349Z,59.80
2023-05-17T09:02:31.063Z,58.10
2023-05-17T09:05:01.169Z,57.00
2023-05-17T09:07:29.000Z,61.90
2023-05-17T09:09:56.818Z,59.00
2023-05-17T09:12:25.729Z,60.50
2023-05-17T09:14:53.704Z,57.60
2023-05-17T09:17:22.521Z,56.20
2023-05-17T09:19:51.871Z,55.20
2023-05-17T09:22:21.519Z,53.80
2023-05-17T09:24:50.492Z,55.50
2023-05-17T09:27:19.234Z,56.10
2023-05-17T09:29:47.944Z,52.60
2023-05-17T09:32:17.353Z,52.00
2023-05-17T09:34:48.272Z,49.60
2023-05-17T09:37:17.667Z,47.80
2023-05-17T09:39:48.489Z,45.90
2023-05-17T09:42:17.283Z,44.60
2023-05-17T09:44:49.487Z,48.60
2023-05-17T09:47:25.066Z,45.70
2023-05-17T09:49:53.146Z,49.50
2023-05-17T09:52:21.870Z,48.30
2023-05-17T09:54:55.296Z,47.80
2023-05-17T09:57:24.234Z,50.40
2023-05-17T09:59:55.941Z,50.00
2023-05-17T10:02:27.648Z,49.60
2023-05-17T10:04:58.276Z,49.40
2023-05-17T10:07:27.852Z,49.00
2023-05-17T10:09:57.485Z,47.20
2023-05-17T10:12:29.451Z,46.20
2023-05-17T10:14:59.939Z,47.10
2023-05-17T10:17:30.097Z,47.00
2023-05-17T10:19:59.350Z,47.00
2023-05-17T10:22:29.167Z,47.60
2023-05-17T10:24:58.998Z,45.50
2023-05-17T10:27:28.001Z,43.90
2023-05-17T10:29:56.502Z,42.70
2023-05-17T10:32:27.385Z,43.50
2023-05-17T10:35:09.591Z,40.70
2023-05-17T10:37:40.068Z,39.20
2023-05-17T10:40:13.368Z,40.40
2023-05-17T10:42:43.471Z,40.10
2023-05-17T10:45:13.188Z,42.70
2023-05-17T10:47:42.566Z,41.70
2023-05-17T10:50:13.052Z,42.20
2023-05-17T10:52:48.175Z,42.30
2023-05-17T10:55:21.498Z,42.40
2023-05-17T10:58:15.995Z,43.90
2023-05-17T11:00:45.972Z,44.40
2023-05-17T11:03:16.768Z,43.40
2023-05-17T11:05:46.909Z,42.00
2023-05-17T11:08:17.278Z,42.80
2023-05-17T11:11:11.502Z,43.20
2023-05-17T11:13:47.247Z,45.50
2023-05-17T11:16:18.325Z,46.50
2023-05-17T11:18:50.989Z,47.40
2023-05-17T11:21:19.627Z,51.30
2023-05-17T11:23:48.937Z,52.00
2023-05-17T11:26:23.120Z,53.00
2023-05-17T11:29:00.126Z,53.90
2023-05-17T11:31:32.117Z,55.00
2023-05-17T11:34:00.655Z,54.10
2023-05-17T11:36:28.505Z,54.70
2023-05-17T11:39:12.547Z,56.40
2023-05-17T11:41:48.872Z,55.80
2023-05-17T11:44:19.250Z,56.60
2023-05-17T11:46:47.166Z,56.80
2023-05-17T11:49:26.868Z,56.20
2023-05-17T11:52:01.745Z,59.70
2023-05-17T11:54:31.278Z,56.10
2023-05-17T11:57:02.860Z,56.10
2023-05-17T11:59:30.960Z,56.70
2023-05-17T12:01:58.733Z,57.20
2023-05-17T12:04:28.412Z,56.30
2023-05-17T12:06:57.893Z,56.90
2023-05-17T12:09:26.575Z,57.90
2023-05-17T12:11:55.633Z,58.00
2023-05-17T12:14:25.431Z,59.60
2023-05-17T12:16:56.266Z,55.50
2023-05-17T12:19:27.244Z,55.80
2023-05-17T12:21:55.088Z,57.10
2023-05-17T12:24:22.962Z,58.20
2023-05-17T12:26:50.831Z,59.50
2023-05-17T12:29:23.136Z,59.20
2023-05-17T12:31:54.008Z,57.30
2023-05-17T12:34:22.966Z,57.70
2023-05-17T12:36:52.851Z,58.60
2023-05-17T12:39:23.887Z,59.40
2023-05-17T12:41:52.956Z,57.60
2023-05-17T12:44:21.676Z,58.70
2023-05-17T12:46:53.733Z,58.70
2023-05-17T12:49:23.265Z,59.00
2023-05-17T12:51:51.485Z,58.60
2023-05-17T12:54:28.450Z,57.90
2023-05-17T12:56:56.677Z,58.40
2023-05-17T12:59:25.959Z,60.20
2023-05-17T13:01:56.484Z,59.80
2023-05-17T13:04:32.802Z,61.00
2023-05-17T13:07:02.470Z,59.20
2023-05-17T13:09:32.025Z,61.00
2023-05-17T13:12:01.119Z,59.80
2023-05-17T13:14:40.283Z,59.50
2023-05-17T13:17:10.654Z,60.50
2023-05-17T13:19:40.406Z,60.10
2023-05-17T13:22:09.254Z,58.00
2023-05-17T13:24:39.696Z,60.50
2023-05-17T13:27:08.324Z,59.90
2023-05-17T13:29:40.493Z,57.80
2023-05-17T13:32:09.927Z,59.10
2023-05-17T13:34:39.274Z,59.30
2023-05-17T13:37:11.203Z,59.00
2023-05-17T13:39:40.527Z,58.50
2023-05-17T13:42:08.463Z,60.90
2023-05-17T13:44:38.234Z,60.40
2023-05-17T13:47:06.720Z,61.20
2023-05-17T13:49:34.554Z,59.90
2023-05-17T13:52:08.396Z,59.90
2023-05-17T13:54:36.266Z,58.90
2023-05-17T13:57:04.237Z,59.40
2023-05-17T13:59:32.102Z,58.60
2023-05-17T14:02:00.016Z,61.20
2023-05-17T14:04:27.843Z,59.70
2023-05-17T14:06:55.593Z,60.00
2023-05-17T14:09:24.846Z,62.30
2023-05-17T14:11:52.779Z,60.00
2023-05-17T14:14:20.574Z,59.60
2023-05-17T14:16:48.367Z,59.60
2023-05-17T14:19:16.243Z,60.60
2023-05-17T14:21:44.110Z,59.00
2023-05-17T14:24:12.055Z,60.00
2023-05-17T14:26:41.870Z,60.70
2023-05-17T14:29:09.778Z,60.90
2023-05-17T14:31:37.592Z,59.60
2023-05-17T14:34:05.497Z,60.90
2023-05-17T14:36:35.660Z,59.40
2023-05-17T14:39:03.828Z,60.10
2023-05-17T14:41:31.774Z,60.80
2023-05-17T14:44:01.266Z,61.50
2023-05-17T14:46:29.252Z,61.00
2023-05-17T14:48:57.407Z,59.70
2023-05-17T14:51:25.385Z,60.20
2023-05-17T14:53:54.265Z,61.00
2023-05-17T14:56:22.653Z,59.00
2023-05-17T14:58:51.177Z,59.50
2023-05-17T15:01:21.000Z,58.90
2023-05-17T15:03:49.003Z,60.80
2023-05-17T15:06:17.268Z,62.90
2023-05-17T15:08:45.040Z,60.00
2023-05-17T15:11:13.140Z,61.20
2023-05-17T15:13:40.877Z,59.20
2023-05-17T15:16:09.368Z,61.60
2023-05-17T15:18:38.885Z,58.60
2023-05-17T15:21:06.860Z,59.20
2023-05-17T15:23:34.683Z,59.40
2023-05-17T15:26:02.576Z,59.60
2023-05-17T15:28:30.644Z,61.20
2023-05-17T15:31:02.384Z,62.10
2023-05-17T15:33:31.111Z,60.50
2023-05-17T15:36:00.289Z,62.90
2023-05-17T15:38:28.133Z,63.10
2023-05-17T15:41:04.203Z,61.90
2023-05-17T15:43:32.738Z,62.10
2023-05-17T15:46:00.868Z,61.70
2023-05-17T15:48:29.500Z,61.80
2023-05-17T15:50:58.013Z,61.70
2023-05-17T15:53:28.456Z,61.90
2023-05-17T15:55:56.582Z,60.40
2023-05-17T15:58:27.832Z,62.30
2023-05-17T16:00:55.976Z,61.60
2023-05-17T16:03:23.705Z,63.30
2023-05-17T16:05:51.700Z,61.40
2023-05-17T16:08:20.331Z,62.50
2023-05-17T16:10:49.495Z,63.70
2023-05-17T16:13:17.689Z,61.50
2023-05-17T16:15:45.485Z,62.60
2023-05-17T16:18:15.149Z,63.20
2023-05-17T16:20:43.721Z,62.30
2023-05-17T16:23:12.711Z,62.70
2023-05-17T16:25:41.585Z,62.00
2023-05-17T16:28:10.810Z,63.30
2023-05-17T16:30:38.689Z,61.80
2023-05-17T16:33:08.420Z,62.20
2023-05-17T16:35:36.610Z,62.90
2023-05-17T16:38:04.428Z,63.80
2023-05-17T16:40:32.472Z,64.00
2023-05-17T16:43:00.688Z,63.40
2023-05-17T16:45:30.158Z,62.70
2023-05-17T16:47:58.244Z,64.40
2023-05-17T16:50:26.100Z,64.60
2023-05-17T16:52:53.946Z,65.10
2023-05-17T16:55:21.871Z,64.90
2023-05-17T16:57:49.778Z,65.00
2023-05-17T17:00:18.650Z,65.10
2023-05-17T17:02:47.932Z,64.00
2023-05-17T17:05:16.033Z,64.40
2023-05-17T17:08:00.272Z,64.90
2023-05-17T17:13:57.833Z,65.20
2023-05-17T17:16:26.401Z,64.70
2023-05-17T17:18:56.416Z,63.70
2023-05-17T17:21:27.074Z,64.80
2023-05-17T17:23:59.603Z,64.20
2023-05-17T17:26:27.690Z,64.70
2023-05-17T17:28:56.791Z,65.50
2023-05-17T17:31:24.635Z,66.20
2023-05-17T17:33:52.867Z,65.80
2023-05-17T17:36:24.164Z,65.20
2023-05-17T17:38:52.240Z,64.60
2023-05-17T17:41:21.271Z,66.30
2023-05-17T17:43:49.626Z,66.60
2023-05-17T17:46:17.805Z,66.80
2023-05-17T17:48:45.770Z,67.00
2023-05-17T17:51:13.650Z,67.00
2023-05-17T17:53:42.886Z,67.60
2023-05-17T17:56:10.854Z,68.10
2023-05-17T17:58:38.944Z,68.70
2023-05-17T18:01:06.956Z,68.70
2023-05-17T18:03:35.204Z,69.30
2023-05-17T18:06:04.658Z,70.20
2023-05-17T18:08:32.503Z,69.50
2023-05-17T18:11:02.380Z,70.00
2023-05-17T18:13:30.382Z,70.50
2023-05-17T18:15:58.366Z,70.30
2023-05-17T18:18:26.275Z,71.50
2023-05-17T18:20:54.238Z,72.90
2023-05-17T18:23:22.216Z,74.00
2023-05-17T18:25:50.769Z,72.60
2023-05-17T18:28:26.846Z,74.60
2023-05-17T18:31:06.265Z,74.70
2023-05-17T18:33:34.893Z,74.50
2023-05-17T18:36:02.760Z,76.00
2023-05-17T18:38:30.773Z,77.70
2023-05-17T18:40:58.628Z,78.90
2023-05-17T18:43:30.515Z,79.10
2023-05-17T18:45:58.419Z,79.60
2023-05-17T18:48:27.745Z,84.00
2023-05-17T18:50:57.577Z,91.70
2023-05-17T18:53:26.409Z,96.80
2023-05-17T18:55:54.272Z,99.90
2023-05-17T18:58:22.120Z,99.00
2023-05-17T19:00:51.303Z,99.10
2023-05-17T19:03:19.414Z,99.90
2023-05-17T19:05:47.663Z,99.90
2023-05-17T19:08:15.760Z,99.90
2023-05-17T19:10:43.695Z,99.90
2023-05-17T19:13:12.877Z,99.90
2023-05-17T19:15:41.799Z,99.90
2023-05-17T19:18:11.266Z,99.90
2023-05-17T19:20:39.391Z,99.90
2023-05-17T19:23:10.300Z,99.90
2023-05-17T19:25:38.143Z,99.90
2023-05-17T19:28:06.593Z,99.90
2023-05-17T19:30:35.038Z,99.90
2023-05-17T19:33:03.870Z,99.90
2023-05-17T19:35:33.310Z,99.90
2023-05-17T19:38:01.387Z,99.90
2023-05-17T19:40:29.712Z,99.90
2023-05-17T19:42:57.684Z,99.90
2023-05-17T19:45:25.966Z,99.90
2023-05-17T19:48:01.450Z,99.90
2023-05-17T19:50:29.958Z,99.90
2023-05-17T19:52:59.443Z,99.90
2023-05-17T19:55:29.994Z,99.90
2023-05-17T19:57:58.133Z,99.90
2023-05-17T20:00:26.178Z,99.90
2023-05-17T20:02:54.436Z,99.90
2023-05-17T20:05:22.735Z,99.90
2023-05-17T20:07:50.871Z,99.90
2023-05-17T20:10:20.572Z,99.90
2023-05-17T20:12:48.418Z,99.90
2023-05-17T20:15:16.245Z,99.90
2023-05-17T20:17:44.130Z,99.90
2023-05-17T20:20:12.438Z,99.90
2023-05-17T20:22:41.441Z,99.90
2023-05-17T20:25:09.443Z,99.90
2023-05-17T20:27:38.634Z,99.90
2023-05-17T20:30:08.657Z,99.90
2023-05-17T20:32:36.717Z,99.90
2023-05-17T20:35:04.738Z,99.90
2023-05-17T20:37:32.687Z,99.90
2023-05-17T20:40:04.770Z,99.90
2023-05-17T20:42:32.892Z,99.90
2023-05-17T20:45:03.709Z,99.90
2023-05-17T20:47:33.922Z,99.90
2023-05-17T20:50:01.808Z,99.90
2023-05-17T20:52:38.973Z,99.90
2023-05-17T20:55:09.074Z,99.90
2023-05-17T20:57:36.905Z,99.90
2023-05-17T21:00:08.809Z,99.90
2023-05-17T21:02:36.842Z,99.90
2023-05-17T21:05:04.854Z,99.90
2023-05-17T21:07:33.015Z,99.90
2023-05-17T21:10:00.856Z,99.90
2023-05-17T21:12:28.703Z,99.90
2023-05-17T21:15:14.461Z,99.90
2023-05-17T21:18:12.883Z,99.90
2023-05-17T21:20:40.989Z,99.90
2023-05-17T21:23:08.948Z,99.90
2023-05-17T21:25:37.815Z,99.90
2023-05-17T21:28:12.900Z,99.90
2023-05-17T21:30:40.991Z,99.90
2023-05-17T21:33:12.101Z,99.90
2023-05-17T21:35:40.020Z,99.90
2023-05-17T21:38:08.136Z,99.90
2023-05-17T21:40:36.250Z,99.90
2023-05-17T21:43:06.815Z,99.90
2023-05-17T21:45:34.845Z,99.90
2023-05-17T21:48:02.789Z,99.90
2023-05-17T21:50:32.487Z,99.90
2023-05-17T21:53:00.505Z,99.90
2023-05-17T21:55:32.393Z,99.90
2023-05-17T21:58:16.242Z,99.90
2023-05-17T22:00:44.138Z,99.90
2023-05-17T22:03:12.070Z,99.90
2023-05-17T22:05:41.526Z,99.90
2023-05-17T22:08:09.397Z,99.90
2023-05-17T22:10:37.242Z,99.90
2023-05-17T22:13:06.150Z,99.90
2023-05-17T22:15:34.291Z,99.90
2023-05-17T22:18:03.558Z,99.90
2023-05-17T22:20:33.632Z,99.90
2023-05-17T22:23:03.294Z,99.90
2023-05-17T22:25:31.541Z,99.90
2023-05-17T22:27:59.420Z,99.90
2023-05-17T22:30:27.244Z,99.90
2023-05-17T22:32:57.283Z,99.90
2023-05-17T22:35:25.370Z,99.90
2023-05-17T22:37:53.522Z,99.90
2023-05-17T22:40:22.926Z,99.90
2023-05-17T22:42:51.938Z,99.90
2023-05-17T22:45:19.881Z,99.90
2023-05-17T22:47:47.791Z,99.90
2023-05-17T22:50:15.826Z,99.90
2023-05-17T22:52:46.431Z,99.90
2023-05-17T22:55:14.293Z,99.90
2023-05-17T22:57:43.466Z,99.90
2023-05-17T23:00:12.259Z,99.90
2023-05-17T23:02:40.174Z,99.90
2023-05-17T23:11:51.217Z,99.90
2023-05-17T23:24:38.630Z,99.90
2023-05-17T23:27:10.318Z,99.90
2023-05-17T23:29:41.531Z,99.90
2023-05-17T23:32:09.404Z,99.90
2023-05-17T23:34:37.476Z,99.90
2023-05-17T23:37:06.669Z,99.90
2023-05-17T23:39:34.524Z,99.90
2023-05-17T23:42:02.296Z,99.90
2023-05-17T23:44:30.592Z,99.90
2023-05-17T23:46:59.918Z,99.90
2023-05-17T23:49:27.690Z,99.90
2023-05-17T23:51:55.471Z,99.90
2023-05-17T23:54:24.732Z,99.90
2023-05-17T23:56:52.467Z,99.90
2023-05-17T23:59:20.905Z,99.90
